createdAt,value
2022-10-17T03:46:41.180Z,10.37
2022-10-17T03:49:38.590Z,9.87
2022-10-17T03:52:23.465Z,8.20
2022-10-17T03:57:47.105Z,12.63
2022-10-17T04:07:18.417Z,12.37
2022-10-17T04:21:18.337Z,8.67
2022-10-17T05:50:07.154Z,14.23
2022-10-17T06:09:27.040Z,15.03
2022-10-17T07:12:54.771Z,12.93
2022-10-17T07:16:30.753Z,11.67
2022-10-17T07:26:53.963Z,15.13
2022-10-17T07:29:42.165Z,15.97
2022-10-17T07:32:30.350Z,14.33
2022-10-17T07:35:22.440Z,12.23
2022-10-17T07:38:25.803Z,12.23
2022-10-17T07:41:07.525Z,12.20
2022-10-17T07:44:19.158Z,11.37
2022-10-17T07:50:13.189Z,12.50
2022-10-17T07:53:15.345Z,10.20
2022-10-17T07:59:42.560Z,10.63
2022-10-17T08:02:36.528Z,8.83
2022-10-17T08:11:40.727Z,8.60
2022-10-17T08:14:35.123Z,8.00
2022-10-17T08:21:04.695Z,6.53
2022-10-17T08:29:53.821Z,5.30
2022-10-17T08:33:04.811Z,5.00
2022-10-17T08:36:14.118Z,5.40
2022-10-17T08:38:52.990Z,6.10
2022-10-17T08:42:18.782Z,4.43
2022-10-17T08:45:43.522Z,6.00
2022-10-17T08:48:50.329Z,5.97
2022-10-17T08:51:43.068Z,5.10
2022-10-17T08:54:56.997Z,6.27
2022-10-17T08:58:01.962Z,6.32
2022-10-17T09:01:07.000Z,5.70
2022-10-17T09:05:06.468Z,5.43
2022-10-17T09:15:09.115Z,4.20
2022-10-17T09:18:24.383Z,4.67
2022-10-17T09:21:39.362Z,4.70
2022-10-17T09:24:32.171Z,3.87
2022-10-17T09:27:09.891Z,3.57
2022-10-17T09:29:45.791Z,3.50
2022-10-17T09:32:39.848Z,2.90
2022-10-17T09:35:38.503Z,3.33
2022-10-17T09:47:52.433Z,3.53
2022-10-17T09:50:43.091Z,2.83
2022-10-17T09:53:51.018Z,3.23
2022-10-17T09:56:32.148Z,2.90
2022-10-17T09:59:32.974Z,2.70
2022-10-17T10:02:40.211Z,3.10
2022-10-17T10:05:37.414Z,3.27
2022-10-17T10:08:37.385Z,3.00
2022-10-17T10:14:26.465Z,3.00
2022-10-17T10:17:00.586Z,2.87
2022-10-17T10:30:11.114Z,3.08
2022-10-17T10:33:14.418Z,2.90
2022-10-17T10:36:17.417Z,3.90
2022-10-17T10:41:55.467Z,2.90
2022-10-17T10:44:39.150Z,3.40
2022-10-17T10:54:09.918Z,3.37
2022-10-17T11:00:00.460Z,3.43
2022-10-17T11:03:22.525Z,3.57
2022-10-17T11:06:09.728Z,3.27
2022-10-17T11:09:04.339Z,3.23
2022-10-17T11:11:46.404Z,3.30
2022-10-17T11:14:58.910Z,2.80
2022-10-17T11:18:10.161Z,3.40
2022-10-17T11:21:18.002Z,3.50
2022-10-17T11:27:15.627Z,3.30
2022-10-17T11:29:48.119Z,3.00
2022-10-17T11:32:45.781Z,3.10
2022-10-17T11:35:28.059Z,3.73
2022-10-17T11:42:00.873Z,3.87
2022-10-17T11:44:41.150Z,3.50
2022-10-17T11:48:23.439Z,3.73
2022-10-17T11:54:50.193Z,3.70
2022-10-17T11:57:56.543Z,3.77
2022-10-17T12:01:34.903Z,3.90
2022-10-17T12:04:47.630Z,4.10
2022-10-17T12:08:04.197Z,4.07
2022-10-17T12:11:14.554Z,3.60
2022-10-17T12:14:01.587Z,3.60
2022-10-17T12:17:01.914Z,4.00
2022-10-17T12:22:57.595Z,4.30
2022-10-17T12:32:15.931Z,4.47
2022-10-17T12:35:07.560Z,5.77
2022-10-17T12:38:07.969Z,5.03
2022-10-17T12:40:56.308Z,5.17
2022-10-17T12:44:37.717Z,5.03
2022-10-17T12:47:56.650Z,5.70
2022-10-17T12:54:47.778Z,5.67
2022-10-17T12:58:07.795Z,6.22
2022-10-17T13:01:24.336Z,6.23
2022-10-17T13:04:12.229Z,5.83
2022-10-17T13:06:56.682Z,6.37
2022-10-17T13:09:53.989Z,6.37
2022-10-17T13:12:41.405Z,6.60
2022-10-17T13:15:19.778Z,6.43
2022-10-17T13:18:06.677Z,5.50
2022-10-17T13:20:51.870Z,6.77
2022-10-17T13:23:53.830Z,6.47
2022-10-17T13:26:34.041Z,6.97
2022-10-17T13:29:36.970Z,7.23
2022-10-17T13:32:24.147Z,7.00
2022-10-17T13:35:41.976Z,7.27
2022-10-17T13:38:32.466Z,7.27
2022-10-17T13:44:56.273Z,6.97
2022-10-17T13:47:36.473Z,7.23
2022-10-17T13:50:32.463Z,7.53
2022-10-17T13:56:22.952Z,8.07
2022-10-17T13:57:07.041Z,9.23
2022-10-17T13:59:59.839Z,8.17
2022-10-17T14:05:24.571Z,10.23
2022-10-17T14:08:24.052Z,9.97
2022-10-17T14:11:06.212Z,11.80
2022-10-17T14:13:55.438Z,10.80
2022-10-17T14:16:55.734Z,10.73
2022-10-17T14:20:40.810Z,11.30
2022-10-17T14:23:30.419Z,11.70
2022-10-17T14:26:37.874Z,10.57
2022-10-17T14:29:31.290Z,10.50
2022-10-17T14:32:23.948Z,10.63
2022-10-17T14:35:37.100Z,10.83
2022-10-17T14:38:27.121Z,11.60
2022-10-17T14:41:45.666Z,11.33
2022-10-17T14:44:42.118Z,10.83
2022-10-17T14:50:36.470Z,10.57
2022-10-17T14:53:37.389Z,10.90
2022-10-17T14:56:44.799Z,11.90
2022-10-17T14:59:52.969Z,11.20
2022-10-17T15:05:17.586Z,14.00
2022-10-17T15:07:51.463Z,13.43
2022-10-17T15:11:10.525Z,11.90
2022-10-17T15:20:32.601Z,12.93
2022-10-17T15:23:10.371Z,12.68
2022-10-17T15:26:15.497Z,14.47
2022-10-17T15:35:25.419Z,12.55
2022-10-17T15:37:52.945Z,15.03
2022-10-17T15:40:41.566Z,18.83
2022-10-17T15:43:34.820Z,19.73
2022-10-17T15:49:15.374Z,16.93
2022-10-17T15:52:07.954Z,15.03
2022-10-17T15:55:11.077Z,14.30
2022-10-17T16:03:34.084Z,13.10
2022-10-17T16:08:50.519Z,14.33
2022-10-17T16:11:54.658Z,14.53
2022-10-17T16:14:44.676Z,14.17
2022-10-17T16:17:52.594Z,18.13
2022-10-17T16:20:22.929Z,16.20
2022-10-17T16:23:15.861Z,18.00
2022-10-17T16:25:55.165Z,18.80
2022-10-17T16:28:26.289Z,20.03
2022-10-17T16:30:57.781Z,20.47
2022-10-17T16:33:28.345Z,20.83
2022-10-17T16:36:10.313Z,22.33
2022-10-17T16:38:38.144Z,21.53
2022-10-17T16:41:37.654Z,21.47
2022-10-17T16:44:11.263Z,22.00
2022-10-17T16:46:42.009Z,22.27
2022-10-17T16:49:16.446Z,22.07
2022-10-17T16:51:51.390Z,20.88
2022-10-17T16:54:19.112Z,23.80
2022-10-17T16:56:49.503Z,23.30
2022-10-17T16:59:17.477Z,23.77
2022-10-17T17:01:45.447Z,22.67
2022-10-17T17:04:16.013Z,24.93
2022-10-17T17:06:46.288Z,23.37
2022-10-17T17:09:21.620Z,26.70
2022-10-17T17:12:00.161Z,24.07
2022-10-17T17:14:29.087Z,26.33
2022-10-17T17:17:12.233Z,23.93
2022-10-17T17:19:53.666Z,25.83
2022-10-17T17:22:21.647Z,25.63
2022-10-17T17:25:05.642Z,25.87
2022-10-17T17:27:36.152Z,24.63
2022-10-17T17:30:09.359Z,25.17
2022-10-17T17:32:37.960Z,23.97
2022-10-17T17:35:15.544Z,25.10
2022-10-17T17:37:50.032Z,25.27
2022-10-17T17:40:21.737Z,23.52
2022-10-17T17:42:50.955Z,22.77
2022-10-17T17:45:18.972Z,23.53
2022-10-17T17:47:49.773Z,24.60
2022-10-17T17:50:17.579Z,23.47
2022-10-17T17:52:50.912Z,22.97
2022-10-17T17:55:21.360Z,25.10
2022-10-17T17:57:49.095Z,23.33
2022-10-17T18:00:18.915Z,25.20
2022-10-17T18:02:48.527Z,23.73
2022-10-17T18:05:16.559Z,23.67
2022-10-17T18:07:45.559Z,22.87
2022-10-17T18:10:22.108Z,24.47
2022-10-17T18:12:50.939Z,22.50
2022-10-17T18:15:18.521Z,22.40
2022-10-17T18:17:46.176Z,20.80
2022-10-17T18:20:16.827Z,20.47
2022-10-17T18:22:44.412Z,21.03
2022-10-17T18:25:23.891Z,20.10
2022-10-17T18:27:51.587Z,20.87
2022-10-17T18:30:22.553Z,20.40
2022-10-17T18:33:04.847Z,20.88
2022-10-17T18:35:32.554Z,20.90
2022-10-17T18:38:00.250Z,21.80
2022-10-17T18:40:30.054Z,18.97
2022-10-17T18:43:10.724Z,19.67
2022-10-17T18:45:38.612Z,19.73
2022-10-17T18:48:09.242Z,19.63
2022-10-17T18:50:39.390Z,20.03
2022-10-17T18:53:07.565Z,19.17
2022-10-17T18:55:41.141Z,19.93
2022-10-17T18:58:08.816Z,19.97
2022-10-17T19:00:37.392Z,19.97
2022-10-17T19:03:24.964Z,20.67
2022-10-17T19:05:52.505Z,20.13
2022-10-17T19:08:20.523Z,18.97
2022-10-17T19:10:48.501Z,18.87
2022-10-17T19:13:20.764Z,19.67
2022-10-17T19:15:49.829Z,20.00
2022-10-17T19:18:17.695Z,19.03
2022-10-17T19:20:46.343Z,19.17
2022-10-17T19:23:17.041Z,18.33
2022-10-17T19:25:47.616Z,19.73
2022-10-17T19:28:15.209Z,18.43
2022-10-17T19:30:45.328Z,19.50
2022-10-17T19:33:13.760Z,18.33
2022-10-17T19:35:43.911Z,17.50
2022-10-17T19:38:11.692Z,19.13
2022-10-17T19:40:43.310Z,17.63
2022-10-17T19:43:12.810Z,17.50
2022-10-17T19:45:40.660Z,17.20
2022-10-17T19:48:10.394Z,17.70
